createdAt,value
2018-03-27T00:01:23.375Z,99500
2018-03-27T00:03:50.769Z,99500
2018-03-27T00:06:18.193Z,99506
2018-03-27T00:08:46.238Z,99499
2018-03-27T00:11:13.755Z,99503
2018-03-27T00:13:41.006Z,99511
2018-03-27T00:16:08.373Z,99512
2018-03-27T00:18:35.777Z,99501
2018-03-27T00:21:03.233Z,99500
2018-03-27T00:23:30.638Z,99503
2018-03-27T00:25:57.940Z,99506
2018-03-27T00:28:43.090Z,99507
2018-03-27T00:31:34.398Z,99510
2018-03-27T00:34:25.627Z,99500
2018-03-27T00:37:16.704Z,99498
2018-03-27T00:40:09.718Z,99500
2018-03-27T00:42:56.768Z,99498
2018-03-27T00:45:24.039Z,99501
2018-03-27T00:47:51.069Z,99499
2018-03-27T00:50:18.910Z,99495
2018-03-27T00:52:46.282Z,99490
2018-03-27T00:55:13.670Z,99483
2018-03-27T00:57:40.930Z,99484
2018-03-27T01:00:08.614Z,99482
2018-03-27T01:02:36.050Z,99477
2018-03-27T01:05:09.228Z,99473
2018-03-27T01:07:36.583Z,99474
2018-03-27T01:10:03.768Z,99474
2018-03-27T01:12:31.021Z,99478
2018-03-27T01:14:58.429Z,99485
2018-03-27T01:17:25.671Z,99483
2018-03-27T01:19:56.225Z,99489
2018-03-27T01:22:24.008Z,99484
2018-03-27T01:24:51.635Z,99488
2018-03-27T01:27:19.022Z,99491
2018-03-27T01:29:47.530Z,99496
2018-03-27T01:32:14.949Z,99497
2018-03-27T01:34:42.181Z,99505
2018-03-27T01:37:09.344Z,99505
2018-03-27T01:39:40.050Z,99506
2018-03-27T01:42:07.980Z,99514
2018-03-27T01:44:35.113Z,99519
2018-03-27T01:47:02.434Z,99526
2018-03-27T01:49:30.000Z,99534
2018-03-27T01:51:57.373Z,99533
2018-03-27T01:54:24.742Z,99532
2018-03-27T01:56:51.964Z,99542
2018-03-27T01:59:19.258Z,99542
2018-03-27T02:01:47.540Z,99542
2018-03-27T02:04:14.862Z,99542
2018-03-27T02:06:42.677Z,99539
2018-03-27T02:09:10.772Z,99541
2018-03-27T02:11:44.108Z,99536
2018-03-27T02:14:17.392Z,99548
2018-03-27T02:16:50.770Z,99546
2018-03-27T02:19:24.208Z,99547
2018-03-27T02:21:51.404Z,99557
2018-03-27T02:24:19.676Z,99553
2018-03-27T02:26:47.022Z,99565
2018-03-27T02:29:18.641Z,99568
2018-03-27T02:31:45.863Z,99570
2018-03-27T02:34:13.301Z,99575
2018-03-27T02:36:40.725Z,99577
2018-03-27T02:39:09.576Z,99574
2018-03-27T02:41:36.765Z,99582
2018-03-27T02:44:04.035Z,99581
2018-03-27T02:46:31.203Z,99584
2018-03-27T02:49:01.805Z,99582
2018-03-27T02:51:29.222Z,99583
2018-03-27T02:53:56.694Z,99576
2018-03-27T02:56:23.988Z,99576
2018-03-27T02:58:51.797Z,99583
2018-03-27T03:01:19.076Z,99590
2018-03-27T03:03:46.455Z,99592
2018-03-27T03:06:13.834Z,99598
2018-03-27T03:08:45.386Z,99601
2018-03-27T03:11:13.480Z,99607
2018-03-27T03:13:40.766Z,99618
2018-03-27T03:16:09.057Z,99623
2018-03-27T03:18:37.116Z,99629
2018-03-27T03:21:04.441Z,99630
2018-03-27T03:23:32.039Z,99629
2018-03-27T03:25:59.626Z,99635
2018-03-27T03:28:31.282Z,99632
2018-03-27T03:30:58.857Z,99641
2018-03-27T03:33:26.185Z,99641
2018-03-27T03:35:53.644Z,99644
2018-03-27T03:38:27.109Z,99642
2018-03-27T03:40:55.194Z,99641
2018-03-27T03:43:22.456Z,99640
2018-03-27T03:45:50.692Z,99645
2018-03-27T03:48:18.134Z,99640
2018-03-27T03:50:45.392Z,99637
2018-03-27T03:53:12.934Z,99634
2018-03-27T03:55:40.782Z,99630
2018-03-27T03:58:08.103Z,99625
2018-03-27T04:00:35.681Z,99630
2018-03-27T04:03:03.120Z,99630
2018-03-27T04:05:30.567Z,99629
2018-03-27T04:07:57.922Z,99628
2018-03-27T04:10:25.084Z,99623
2018-03-27T04:12:52.390Z,99622
2018-03-27T04:15:19.722Z,99617
2018-03-27T04:17:47.009Z,99618
2018-03-27T04:20:14.247Z,99618
2018-03-27T04:22:41.717Z,99615
2018-03-27T04:25:09.058Z,99613
2018-03-27T04:27:36.342Z,99625
2018-03-27T04:30:06.981Z,99637
2018-03-27T04:32:35.342Z,99637
2018-03-27T04:35:03.341Z,99648
2018-03-27T04:37:30.725Z,99660
2018-03-27T04:40:02.545Z,99655
2018-03-27T04:42:30.669Z,99655
2018-03-27T04:44:58.126Z,99660
2018-03-27T04:47:25.276Z,99667
2018-03-27T04:49:55.910Z,99660
2018-03-27T04:52:23.236Z,99663
2018-03-27T04:54:50.618Z,99662
2018-03-27T04:57:17.814Z,99665
2018-03-27T04:59:48.978Z,99669
2018-03-27T05:02:16.230Z,99684
2018-03-27T05:04:43.607Z,99690
2018-03-27T05:07:10.924Z,99685
2018-03-27T05:09:40.046Z,99687
2018-03-27T05:12:07.469Z,99687
2018-03-27T05:14:34.730Z,99693
2018-03-27T05:17:02.219Z,99703
2018-03-27T05:19:29.375Z,99700
2018-03-27T05:21:56.738Z,99709
2018-03-27T05:24:24.050Z,99705
2018-03-27T05:26:51.449Z,99703
2018-03-27T05:29:24.407Z,99708
2018-03-27T05:31:51.666Z,99718
2018-03-27T05:34:19.016Z,99722
2018-03-27T05:36:46.294Z,99719
2018-03-27T05:39:20.090Z,99731
2018-03-27T05:41:47.492Z,99730
2018-03-27T05:44:14.820Z,99734
2018-03-27T05:46:42.696Z,99738
2018-03-27T05:49:11.254Z,99734
2018-03-27T05:51:38.623Z,99738
2018-03-27T05:54:05.990Z,99738
2018-03-27T05:56:33.410Z,99737
2018-03-27T05:59:07.133Z,99731
2018-03-27T06:01:34.452Z,99727
2018-03-27T06:04:02.530Z,99733
2018-03-27T06:06:30.641Z,99731
2018-03-27T06:09:03.614Z,99735
2018-03-27T06:11:31.098Z,99723
2018-03-27T06:13:58.785Z,99725
2018-03-27T06:16:26.296Z,99723
2018-03-27T06:18:56.707Z,99727
2018-03-27T06:21:24.729Z,99727
2018-03-27T06:23:52.094Z,99724
2018-03-27T06:26:19.338Z,99723
2018-03-27T06:28:50.948Z,99720
2018-03-27T06:31:18.414Z,99719
2018-03-27T06:33:45.827Z,99729
2018-03-27T06:36:13.054Z,99727
2018-03-27T06:38:41.652Z,99726
2018-03-27T06:41:09.085Z,99738
2018-03-27T06:43:36.509Z,99746
2018-03-27T06:46:03.698Z,99751
2018-03-27T06:48:31.186Z,99749
2018-03-27T06:50:58.477Z,99746
2018-03-27T06:53:25.809Z,99745
2018-03-27T06:55:53.200Z,99747
2018-03-27T06:58:25.373Z,99750
2018-03-27T07:00:52.693Z,99746
2018-03-27T07:03:20.879Z,99740
2018-03-27T07:05:48.220Z,99740
2018-03-27T07:08:21.353Z,99738
2018-03-27T07:10:48.759Z,99740
2018-03-27T07:13:15.969Z,99743
2018-03-27T07:15:43.459Z,99745
2018-03-27T07:18:11.865Z,99740
2018-03-27T07:20:39.122Z,99740
2018-03-27T07:23:06.496Z,99736
2018-03-27T07:25:33.837Z,99736
2018-03-27T07:28:08.312Z,99737
2018-03-27T07:30:35.602Z,99741
2018-03-27T07:33:02.850Z,99745
2018-03-27T07:35:31.046Z,99741
2018-03-27T07:37:59.437Z,99748
2018-03-27T07:40:26.784Z,99757
2018-03-27T07:42:54.157Z,99761
2018-03-27T07:45:21.543Z,99760
2018-03-27T07:47:52.948Z,99763
2018-03-27T07:50:20.313Z,99765
2018-03-27T07:52:47.898Z,99769
2018-03-27T07:55:15.242Z,99779
2018-03-27T07:57:42.629Z,99775
2018-03-27T08:00:09.974Z,99775
2018-03-27T08:02:37.450Z,99776
2018-03-27T08:05:04.768Z,99780
2018-03-27T08:07:32.242Z,99777
2018-03-27T08:09:59.601Z,99780
2018-03-27T08:12:27.766Z,99779
2018-03-27T08:14:55.290Z,99776
2018-03-27T08:17:23.948Z,99784
2018-03-27T08:19:52.617Z,99791
2018-03-27T08:22:19.921Z,99782
2018-03-27T08:24:47.167Z,99792
2018-03-27T08:27:14.618Z,99780
2018-03-27T08:29:41.949Z,99778
2018-03-27T08:32:09.274Z,99788
2018-03-27T08:34:36.727Z,99783
2018-03-27T08:37:04.005Z,99783
2018-03-27T08:39:32.658Z,99776
2018-03-27T08:42:00.307Z,99784
2018-03-27T08:44:27.697Z,99780
2018-03-27T08:46:55.247Z,99784
2018-03-27T08:49:22.781Z,99781
2018-03-27T08:51:50.234Z,99776
2018-03-27T08:54:17.683Z,99785
2018-03-27T08:56:45.074Z,99770
2018-03-27T08:59:13.569Z,99766
2018-03-27T09:01:40.970Z,99772
2018-03-27T09:04:08.218Z,99764
2018-03-27T09:06:35.451Z,99762
2018-03-27T09:09:03.786Z,99766
2018-03-27T09:11:31.291Z,99764
2018-03-27T09:13:58.718Z,99765
2018-03-27T09:16:25.995Z,99771
2018-03-27T09:18:54.430Z,99769
2018-03-27T09:21:21.877Z,99771
2018-03-27T09:23:49.759Z,99779
2018-03-27T09:26:17.078Z,99771
2018-03-27T09:28:47.830Z,99768
2018-03-27T09:31:15.994Z,99764
2018-03-27T09:33:43.121Z,99772
2018-03-27T09:36:10.491Z,99766
2018-03-27T09:38:38.037Z,99764
2018-03-27T09:41:05.513Z,99770
2018-03-27T09:43:32.913Z,99763
2018-03-27T09:46:01.454Z,99753
2018-03-27T09:48:29.046Z,99746
2018-03-27T09:50:56.346Z,99750
2018-03-27T09:53:24.002Z,99745
2018-03-27T09:55:51.498Z,99739
2018-03-27T09:58:18.937Z,99732
2018-03-27T10:00:50.058Z,99721
2018-03-27T10:03:17.421Z,99730
2018-03-27T10:05:44.854Z,99724
2018-03-27T10:08:15.772Z,99739
2018-03-27T10:10:43.141Z,99734
2018-03-27T10:13:10.362Z,99749
2018-03-27T10:15:37.731Z,99739
2018-03-27T10:18:15.214Z,99738
2018-03-27T10:20:43.477Z,99737
2018-03-27T10:23:10.613Z,99735
2018-03-27T10:25:37.971Z,99732
2018-03-27T10:28:09.613Z,99732
2018-03-27T10:30:37.056Z,99725
2018-03-27T10:33:04.429Z,99714
2018-03-27T10:35:31.845Z,99721
2018-03-27T10:37:59.299Z,99721
2018-03-27T10:40:26.554Z,99721
2018-03-27T10:42:54.053Z,99726
2018-03-27T10:45:21.401Z,99730
2018-03-27T10:47:48.658Z,99726
2018-03-27T10:50:15.951Z,99722
2018-03-27T10:52:43.846Z,99711
2018-03-27T10:55:11.157Z,99708
2018-03-27T10:57:44.776Z,99702
2018-03-27T11:00:12.021Z,99702
2018-03-27T11:02:39.494Z,99693
2018-03-27T11:05:06.909Z,99698
2018-03-27T11:07:34.319Z,99700
2018-03-27T11:10:01.644Z,99698
2018-03-27T11:12:28.957Z,99693
2018-03-27T11:14:56.164Z,99692
2018-03-27T11:17:26.971Z,99682
2018-03-27T11:19:54.147Z,99690
2018-03-27T11:22:21.366Z,99700
2018-03-27T11:24:48.849Z,99702
2018-03-27T11:27:17.651Z,99702
2018-03-27T11:29:45.554Z,99699
2018-03-27T11:32:13.170Z,99699
2018-03-27T11:34:40.594Z,99698
2018-03-27T11:37:07.963Z,99701
2018-03-27T11:39:35.318Z,99699
2018-03-27T11:42:02.709Z,99696
2018-03-27T11:44:30.171Z,99699
2018-03-27T11:46:57.934Z,99706
2018-03-27T11:49:29.800Z,99707
2018-03-27T11:51:57.111Z,99702
2018-03-27T11:54:24.522Z,99705
2018-03-27T11:56:51.612Z,99707
2018-03-27T11:59:19.114Z,99704
2018-03-27T12:01:46.398Z,99701
2018-03-27T12:04:14.091Z,99694
2018-03-27T12:06:41.544Z,99704
2018-03-27T12:09:08.905Z,99702
2018-03-27T12:11:36.320Z,99690
2018-03-27T12:14:04.139Z,99698
2018-03-27T12:16:31.538Z,99699
2018-03-27T12:19:02.613Z,99699
2018-03-27T12:21:30.268Z,99698
2018-03-27T12:23:58.708Z,99700
2018-03-27T12:26:26.515Z,99707
2018-03-27T12:28:58.858Z,99706
2018-03-27T12:31:26.179Z,99702
2018-03-27T12:33:54.274Z,99704
2018-03-27T12:36:22.050Z,99704
2018-03-27T12:38:52.915Z,99705
2018-03-27T12:41:20.174Z,99702
2018-03-27T12:43:47.331Z,99698
2018-03-27T12:46:14.431Z,99689
2018-03-27T12:48:43.766Z,99686
2018-03-27T12:51:10.994Z,99687
2018-03-27T12:53:38.305Z,99684
2018-03-27T12:56:05.485Z,99692
2018-03-27T12:58:32.921Z,99694
2018-03-27T13:01:00.262Z,99693
2018-03-27T13:03:27.521Z,99699
2018-03-27T13:05:56.695Z,99697
2018-03-27T13:08:27.695Z,99699
2018-03-27T13:10:54.972Z,99708
2018-03-27T13:13:22.574Z,99713
2018-03-27T13:15:49.943Z,99706
2018-03-27T13:18:22.008Z,99713
2018-03-27T13:20:49.886Z,99720
2018-03-27T13:23:17.084Z,99722
2018-03-27T13:25:44.631Z,99722
2018-03-27T13:28:11.782Z,99725
2018-03-27T13:30:38.958Z,99725
2018-03-27T13:33:06.413Z,99725
2018-03-27T13:35:33.602Z,99730
2018-03-27T13:38:04.647Z,99723
2018-03-27T13:40:31.877Z,99724
2018-03-27T13:42:59.150Z,99726
2018-03-27T13:45:26.478Z,99725
2018-03-27T13:47:53.770Z,99722
2018-03-27T13:50:24.022Z,99721
2018-03-27T13:52:51.347Z,99727
2018-03-27T13:55:18.681Z,99736
2018-03-27T13:57:51.769Z,99731
2018-03-27T14:00:18.954Z,99729
2018-03-27T14:02:46.078Z,99733
2018-03-27T14:05:13.373Z,99731
2018-03-27T14:07:44.597Z,99727
2018-03-27T14:10:11.779Z,99727
2018-03-27T14:12:39.153Z,99725
2018-03-27T14:15:06.370Z,99715
2018-03-27T14:17:34.614Z,99718
2018-03-27T14:20:01.837Z,99722
2018-03-27T14:22:29.173Z,99720
2018-03-27T14:24:56.453Z,99721
2018-03-27T14:27:23.841Z,99716
2018-03-27T14:29:51.125Z,99723
2018-03-27T14:32:18.306Z,99728
2018-03-27T14:34:45.739Z,99728
2018-03-27T14:37:13.829Z,99731
2018-03-27T14:39:41.430Z,99735
2018-03-27T14:42:08.615Z,99733
2018-03-27T14:44:35.732Z,99731
2018-03-27T14:47:03.750Z,99738
2018-03-27T14:49:30.864Z,99737
2018-03-27T14:51:58.093Z,99742
2018-03-27T14:54:25.452Z,99733
2018-03-27T14:56:56.362Z,99731
2018-03-27T14:59:23.741Z,99737
2018-03-27T15:01:50.882Z,99739
2018-03-27T15:04:18.916Z,99744
2018-03-27T15:06:51.899Z,99744
2018-03-27T15:09:19.214Z,99749
2018-03-27T15:11:46.610Z,99744
2018-03-27T15:14:13.902Z,99740
2018-03-27T15:16:44.454Z,99737
2018-03-27T15:19:11.850Z,99731
2018-03-27T15:21:39.121Z,99729
2018-03-27T15:24:06.580Z,99728
2018-03-27T15:26:34.439Z,99736
2018-03-27T15:29:02.604Z,99739
2018-03-27T15:31:29.946Z,99737
2018-03-27T15:33:57.216Z,99731
2018-03-27T15:36:25.342Z,99732
2018-03-27T15:38:52.493Z,99739
2018-03-27T15:41:19.874Z,99742
2018-03-27T15:43:47.834Z,99741
2018-03-27T15:46:15.828Z,99744
2018-03-27T15:48:55.933Z,99745
2018-03-27T15:51:23.210Z,99752
2018-03-27T15:53:50.473Z,99752
2018-03-27T15:56:17.662Z,99748
2018-03-27T15:58:48.566Z,99761
2018-03-27T16:01:16.110Z,99755
2018-03-27T16:03:43.573Z,99767
2018-03-27T16:06:10.806Z,99771
2018-03-27T16:08:48.688Z,99771
2018-03-27T16:11:15.934Z,99774
2018-03-27T16:13:43.206Z,99774
2018-03-27T16:16:11.182Z,99771
2018-03-27T16:18:43.348Z,99774
2018-03-27T16:21:10.623Z,99779
2018-03-27T16:23:37.867Z,99782
2018-03-27T16:26:06.132Z,99789
2018-03-27T16:28:33.490Z,99792
2018-03-27T16:31:00.729Z,99788
2018-03-27T16:33:28.821Z,99788
2018-03-27T16:35:56.234Z,99792
2018-03-27T16:38:27.578Z,99792
2018-03-27T16:40:55.358Z,99795
2018-03-27T16:43:22.707Z,99791
2018-03-27T16:45:50.013Z,99795
2018-03-27T16:48:21.705Z,99796
2018-03-27T16:50:48.882Z,99798
2018-03-27T16:53:17.205Z,99804
2018-03-27T16:55:44.465Z,99803
2018-03-27T16:58:13.578Z,99806
2018-03-27T17:00:42.485Z,99812
2018-03-27T17:03:09.702Z,99811
2018-03-27T17:05:36.846Z,99814
2018-03-27T17:08:08.610Z,99816
2018-03-27T17:10:36.019Z,99817
2018-03-27T17:13:03.253Z,99820
2018-03-27T17:15:31.499Z,99821
2018-03-27T17:18:03.225Z,99822
2018-03-27T17:20:30.505Z,99825
2018-03-27T17:22:58.047Z,99829
2018-03-27T17:25:25.838Z,99827
2018-03-27T17:27:56.812Z,99827
2018-03-27T17:30:24.471Z,99824
2018-03-27T17:32:51.744Z,99831
2018-03-27T17:35:18.947Z,99832
2018-03-27T17:37:48.329Z,99835
2018-03-27T17:40:15.479Z,99834
2018-03-27T17:42:42.831Z,99836
2018-03-27T17:45:10.868Z,99839
2018-03-27T17:47:43.055Z,99835
2018-03-27T17:50:10.586Z,99833
2018-03-27T17:52:37.915Z,99842
2018-03-27T17:55:06.778Z,99849
2018-03-27T17:57:34.145Z,99847
2018-03-27T18:00:01.413Z,99854
2018-03-27T18:02:28.646Z,99857
2018-03-27T18:04:56.096Z,99850
2018-03-27T18:07:23.248Z,99850
2018-03-27T18:09:50.454Z,99850
2018-03-27T18:12:17.730Z,99852
2018-03-27T18:14:47.370Z,99852
2018-03-27T18:17:18.919Z,99854
2018-03-27T18:19:46.186Z,99854
2018-03-27T18:22:13.503Z,99857
2018-03-27T18:24:40.967Z,99855
2018-03-27T18:27:08.431Z,99853
2018-03-27T18:29:35.802Z,99858
2018-03-27T18:32:02.839Z,99864
2018-03-27T18:34:29.950Z,99876
2018-03-27T18:36:58.206Z,99882
2018-03-27T18:39:27.354Z,99884
2018-03-27T18:41:55.521Z,99891
2018-03-27T18:44:22.531Z,99890
2018-03-27T18:46:49.806Z,99890
2018-03-27T18:49:17.124Z,99895
2018-03-27T18:51:44.399Z,99899
2018-03-27T18:54:11.621Z,99890
2018-03-27T18:56:42.745Z,99894
2018-03-27T18:59:10.833Z,99894
2018-03-27T19:01:38.053Z,99897
2018-03-27T19:04:05.268Z,99902
2018-03-27T19:06:32.687Z,99910
2018-03-27T19:09:00.067Z,99912
2018-03-27T19:11:28.368Z,99918
2018-03-27T19:13:56.110Z,99911
2018-03-27T19:16:23.441Z,99909
2018-03-27T19:18:50.690Z,99911
2018-03-27T19:21:17.862Z,99917
2018-03-27T19:23:45.229Z,99912
2018-03-27T19:26:12.598Z,99909
2018-03-27T19:28:41.174Z,99910
2018-03-27T19:31:09.274Z,99914
2018-03-27T19:33:36.743Z,99916
2018-03-27T19:36:04.144Z,99916
2018-03-27T19:38:31.373Z,99908
2018-03-27T19:40:59.295Z,99903
2018-03-27T19:43:26.592Z,99903
2018-03-27T19:45:54.214Z,99899
2018-03-27T19:48:21.426Z,99899
2018-03-27T19:50:48.542Z,99906
2018-03-27T19:53:15.773Z,99914
2018-03-27T19:55:43.068Z,99913
2018-03-27T19:58:11.377Z,99914
2018-03-27T20:00:38.569Z,99916
2018-03-27T20:03:05.742Z,99920
2018-03-27T20:05:33.082Z,99919
2018-03-27T20:08:04.340Z,99927
2018-03-27T20:10:31.658Z,99924
2018-03-27T20:12:58.982Z,99931
2018-03-27T20:15:26.241Z,99933
2018-03-27T20:17:54.387Z,99943
2018-03-27T20:20:22.283Z,99943
2018-03-27T20:22:49.517Z,99954
2018-03-27T20:25:17.310Z,99948
2018-03-27T20:27:44.566Z,99951
2018-03-27T20:30:11.602Z,99956
2018-03-27T20:32:38.831Z,99966
2018-03-27T20:35:07.501Z,99969
2018-03-27T20:37:35.977Z,99965
2018-03-27T20:40:04.012Z,99960
2018-03-27T20:42:31.222Z,99944
2018-03-27T20:44:58.507Z,99933
2018-03-27T20:47:25.822Z,99933
2018-03-27T20:49:53.183Z,99942
2018-03-27T20:52:20.309Z,99944
2018-03-27T20:54:47.918Z,99936
2018-03-27T20:57:29.172Z,99947
2018-03-27T20:59:56.510Z,99950
2018-03-27T21:02:23.729Z,99945
2018-03-27T21:04:50.922Z,99942
2018-03-27T21:07:21.614Z,99944
2018-03-27T21:09:48.822Z,99950
2018-03-27T21:12:16.034Z,99951
2018-03-27T21:14:43.283Z,99938
2018-03-27T21:17:14.986Z,99939
2018-03-27T21:19:42.113Z,99934
2018-03-27T21:22:09.306Z,99942
2018-03-27T21:24:38.421Z,99955
2018-03-27T21:27:08.790Z,99969
2018-03-27T21:29:35.902Z,99967
2018-03-27T21:32:03.585Z,99962
2018-03-27T21:34:30.801Z,99965
2018-03-27T21:37:01.842Z,99960
2018-03-27T21:39:30.030Z,99953
2018-03-27T21:41:57.094Z,99953
2018-03-27T21:44:24.318Z,99947
2018-03-27T21:46:54.829Z,99941
2018-03-27T21:49:21.973Z,99948
2018-03-27T21:51:49.292Z,99944
2018-03-27T21:54:16.610Z,99942
2018-03-27T21:56:47.053Z,99939
2018-03-27T21:59:14.091Z,99941
2018-03-27T22:01:41.042Z,99939
2018-03-27T22:04:08.456Z,99941
2018-03-27T22:06:35.794Z,99937
2018-03-27T22:09:02.958Z,99933
2018-03-27T22:11:30.155Z,99933
2018-03-27T22:13:57.438Z,99932
2018-03-27T22:16:29.861Z,99931
2018-03-27T22:18:56.952Z,99928
2018-03-27T22:21:24.105Z,99924
2018-03-27T22:23:51.419Z,99920
2018-03-27T22:26:24.966Z,99916
2018-03-27T22:28:52.165Z,99914
2018-03-27T22:31:19.346Z,99912
2018-03-27T22:33:46.453Z,99911
2018-03-27T22:36:19.534Z,99923
2018-03-27T22:38:46.813Z,99915
2018-03-27T22:41:14.058Z,99912
2018-03-27T22:43:41.370Z,99922
2018-03-27T22:46:11.545Z,99916
2018-03-27T22:48:38.736Z,99909
2018-03-27T22:51:06.018Z,99904
2018-03-27T22:53:33.842Z,99901
2018-03-27T22:56:01.433Z,99894
2018-03-27T22:58:29.473Z,99887
2018-03-27T23:00:56.712Z,99899
2018-03-27T23:03:23.804Z,99906
2018-03-27T23:06:01.372Z,99910
2018-03-27T23:08:29.278Z,99905
2018-03-27T23:11:01.494Z,99902
2018-03-27T23:13:28.698Z,99897
2018-03-27T23:16:00.137Z,99906
2018-03-27T23:18:27.384Z,99909
2018-03-27T23:20:54.589Z,99908
2018-03-27T23:23:21.798Z,99913
2018-03-27T23:25:53.497Z,99914
2018-03-27T23:28:21.377Z,99914
2018-03-27T23:30:48.606Z,99909
2018-03-27T23:33:15.950Z,99902
2018-03-27T23:35:46.296Z,99901
2018-03-27T23:38:16.197Z,99901
2018-03-27T23:40:43.502Z,99900
2018-03-27T23:43:10.711Z,99909
2018-03-27T23:45:41.611Z,99906
2018-03-27T23:48:09.045Z,99906
2018-03-27T23:50:36.193Z,99912
2018-03-27T23:53:03.330Z,99917
2018-03-27T23:55:36.226Z,99910
2018-03-27T23:58:03.345Z,99908
